Time;durP1;ratioP1;P1;durP2;ratioP2;P2;SDS_P1;SDS_P2;PMS_P1;PMS_P2;Temp;Humidity;BMP_temperature;BMP_pressure;BME280_temperature;BME280_humidity;BME280_pressure;Samples;Min_cycle;Max_cycle;Signal;HPM_P1;HPM_P2
2022/06/14 00:01:34;;;;;;;0.67;0.67;;;;;;;17.75;57.13;95955.38;4338248;32;20200;-61
2022/06/14 00:04:00;;;;;;;0.30;0.30;;;;;;;17.66;58.09;95950.09;4354006;32;20197;-61
2022/06/14 00:06:28;;;;;;;1.03;0.60;;;;;;;17.70;58.43;95952.88;4344456;32;20189;-61
2022/06/14 00:08:54;;;;;;;0.97;0.60;;;;;;;17.73;57.87;95953.03;4348131;32;20219;-61
2022/06/14 00:11:24;;;;;;;0.90;0.80;;;;;;;17.67;59.92;95948.94;4355680;32;20180;-61
2022/06/14 00:13:50;;;;;;;0.47;0.43;;;;;;;17.73;59.21;95953.03;4356120;32;20217;-61
2022/06/14 00:16:17;;;;;;;0.53;0.53;;;;;;;17.73;57.07;95952.25;4337078;32;20185;-61
2022/06/14 00:18:44;;;;;;;0.93;0.60;;;;;;;17.65;57.00;95951.19;4351411;32;20190;-61
2022/06/14 00:21:11;;;;;;;0.73;0.73;;;;;;;17.73;56.67;95953.03;4339930;32;20215;-61
2022/06/14 00:23:38;;;;;;;1.20;0.90;;;;;;;17.74;56.87;95957.28;4353732;32;20289;-61
2022/06/14 00:26:04;;;;;;;2.23;1.00;;;;;;;17.72;56.68;95950.66;4356867;32;20185;-61
2022/06/14 00:28:32;;;;;;;0.63;0.63;;;;;;;17.79;57.41;95962.47;4353877;32;20215;-61
2022/06/14 00:31:20;;;;;;;0.20;0.20;;;;;;;17.71;58.36;95965.19;4349886;32;20181;-61
2022/06/14 00:33:46;;;;;;;0.40;0.40;;;;;;;17.68;58.03;95958.56;4336703;32;20209;-61
2022/06/14 00:36:23;;;;;;;0.70;0.70;;;;;;;17.65;59.02;95956.56;4350832;32;20215;-61
2022/06/14 00:38:49;;;;;;;0.60;0.60;;;;;;;17.50;59.70;95954.34;4345141;32;20211;-61
2022/06/14 00:41:32;;;;;;;0.40;0.40;;;;;;;17.53;59.62;95954.50;4342112;32;20173;-61
2022/06/14 00:43:57;;;;;;;0.77;0.77;;;;;;;17.46;59.20;95950.72;4358030;32;20181;-61
2022/06/14 00:46:28;;;;;;;1.50;0.53;;;;;;;17.40;59.69;95950.16;4340548;32;20259;-61
2022/06/14 00:49:01;;;;;;;0.17;0.17;;;;;;;17.46;60.44;95954.19;4367540;32;20189;-61
2022/06/14 00:51:34;;;;;;;0.93;0.80;;;;;;;17.36;59.47;95945.72;4345623;32;20193;-61
2022/06/14 00:54:23;;;;;;;0.73;0.73;;;;;;;17.43;59.44;95946.81;4352749;32;20173;-61
2022/06/14 00:56:57;;;;;;;0.60;0.60;;;;;;;17.33;59.97;95943.69;4337836;32;20204;-62
2022/06/14 01:00:04;;;;;;;0.77;0.77;;;;;;;17.39;61.32;95942.41;4356213;32;20208;-61
2022/06/14 01:02:38;;;;;;;0.77;0.73;;;;;;;17.31;64.46;95945.91;4316808;32;20199;-61
2022/06/14 01:05:07;;;;;;;1.43;1.10;;;;;;;17.22;64.28;95945.94;4342719;32;20189;-61
2022/06/14 01:07:38;;;;;;;0.47;0.47;;;;;;;17.17;65.41;95946.09;4359402;32;20200;-61
2022/06/14 01:10:08;;;;;;;0.50;0.50;;;;;;;17.08;66.25;95948.78;4354899;32;20181;-61
2022/06/14 01:12:38;;;;;;;0.57;0.57;;;;;;;17.13;66.46;95940.59;4346122;32;20234;-61
2022/06/14 01:15:12;;;;;;;0.50;0.50;;;;;;;17.13;66.65;95945.94;4330965;32;20173;-61
2022/06/14 01:17:49;;;;;;;0.50;0.50;;;;;;;17.13;67.02;95942.47;4335455;32;20264;-61
2022/06/14 01:20:19;;;;;;;0.90;0.80;;;;;;;17.09;67.61;95945.00;4359838;32;20195;-61
2022/06/14 01:22:49;;;;;;;0.90;0.90;;;;;;;17.08;67.49;95946.13;4354846;32;20182;-61
2022/06/14 01:25:16;;;;;;;1.03;1.03;;;;;;;17.05;67.79;95937.91;4343447;32;20181;-61
2022/06/14 01:27:43;;;;;;;0.80;0.80;;;;;;;17.04;68.19;95944.41;4358639;32;20196;-61
2022/06/14 01:30:45;;;;;;;0.70;0.70;;;;;;;17.06;68.26;95937.59;4352707;32;20355;-61
2022/06/14 01:33:45;;;;;;;1.23;1.00;;;;;;;17.05;67.96;95938.69;4334373;32;20188;-61
2022/06/14 01:36:22;;;;;;;0.40;0.40;;;;;;;17.09;67.32;95933.50;4346540;32;20197;-61
2022/06/14 01:38:49;;;;;;;0.80;0.80;;;;;;;17.08;67.22;95938.06;4353573;32;20250;-62
2022/06/14 01:41:27;;;;;;;0.97;0.90;;;;;;;16.97;68.04;95936.84;4346297;32;20228;-61
2022/06/14 01:44:18;;;;;;;2.47;1.20;;;;;;;16.86;68.06;95930.22;4351147;32;20189;-61
2022/06/14 01:46:50;;;;;;;0.90;0.90;;;;;;;16.98;67.69;95927.69;4348553;32;20181;-61
2022/06/14 01:52:55;;;;;;;0.67;0.67;;;;;;;16.95;67.72;95932.91;4343659;32;20259;-61
2022/06/14 01:55:46;;;;;;;1.23;1.00;;;;;;;16.79;69.17;95933.41;4343694;32;20177;-61
2022/06/14 01:58:42;;;;;;;1.00;1.00;;;;;;;16.88;69.16;95927.22;4345285;32;20269;-61
2022/06/14 02:01:30;;;;;;;1.90;1.13;;;;;;;16.83;69.23;95928.22;4327806;33;20276;-61
2022/06/14 02:07:12;;;;;;;0.80;0.77;;;;;;;16.71;69.13;95928.84;4345019;32;20192;-61
2022/06/14 02:10:17;;;;;;;0.60;0.60;;;;;;;16.73;69.11;95928.53;4347982;32;20257;-61
2022/06/14 02:12:59;;;;;;;0.87;0.87;;;;;;;16.75;69.31;95929.78;4349037;32;20211;-61
2022/06/14 02:15:44;;;;;;;0.70;0.70;;;;;;;16.64;69.48;95922.38;4343637;32;20181;-61
2022/06/14 02:18:33;;;;;;;0.77;0.77;;;;;;;16.62;69.52;95921.91;4343508;32;20197;-61
2022/06/14 02:21:10;;;;;;;1.20;1.20;;;;;;;16.59;69.82;95922.53;4327391;32;20181;-61
2022/06/14 02:23:42;;;;;;;0.80;0.80;;;;;;;16.55;70.33;95926.94;4350926;32;20192;-61
2022/06/14 02:26:15;;;;;;;0.20;0.20;;;;;;;16.45;70.64;95928.81;4344231;32;20310;-61
2022/06/14 02:29:02;;;;;;;4.07;0.93;;;;;;;16.57;70.55;95922.06;4353445;32;20180;-61
2022/06/14 02:31:42;;;;;;;0.90;0.90;;;;;;;16.60;70.67;95927.56;4342497;32;20177;-61
2022/06/14 02:34:20;;;;;;;0.97;0.83;;;;;;;16.58;70.55;95927.09;4344247;32;20313;-61
2022/06/14 02:36:52;;;;;;;4.13;1.30;;;;;;;16.54;70.54;95920.00;4351096;32;20231;-61
2022/06/14 02:39:23;;;;;;;0.73;0.73;;;;;;;16.54;70.30;95925.34;4349664;32;20200;-61
2022/06/14 02:42:04;;;;;;;1.50;1.27;;;;;;;16.52;70.63;95919.53;4345253;32;20186;-62
2022/06/14 02:44:30;;;;;;;0.90;0.90;;;;;;;16.45;71.01;95920.78;4333426;32;20231;-61
2022/06/14 02:47:07;;;;;;;0.90;0.90;;;;;;;16.46;71.09;95917.00;4344892;32;20186;-61
2022/06/14 02:49:47;;;;;;;0.80;0.80;;;;;;;16.38;70.94;95909.78;4337403;32;20223;-60
2022/06/14 02:52:23;;;;;;;0.60;0.60;;;;;;;16.40;71.00;95907.56;4333934;32;20190;-61
2022/06/14 02:54:55;;;;;;;0.70;0.70;;;;;;;16.43;71.34;95919.50;4356765;32;20184;-61
2022/06/14 02:57:46;;;;;;;1.17;1.17;;;;;;;16.29;72.21;95922.34;4364214;32;20195;-61
2022/06/14 03:00:20;;;;;;;0.90;0.90;;;;;;;16.35;72.15;95920.31;4338176;32;20264;-61
2022/06/14 03:02:50;;;;;;;0.70;0.70;;;;;;;16.35;71.93;95926.47;4355955;32;20188;-60
2022/06/14 03:05:34;;;;;;;1.60;1.37;;;;;;;16.25;72.95;95926.75;4372760;32;20227;-60
2022/06/14 03:08:09;;;;;;;0.93;0.87;;;;;;;16.20;73.61;95929.63;4366783;32;20317;-61
2022/06/14 03:11:04;;;;;;;0.77;0.77;;;;;;;16.26;73.34;95917.63;4352043;32;20181;-61
2022/06/14 03:13:51;;;;;;;0.97;0.97;;;;;;;16.18;73.90;95926.47;4358305;32;20200;-60
2022/06/14 03:16:41;;;;;;;3.20;0.90;;;;;;;16.14;74.02;95920.94;4358946;32;20185;-61
2022/06/14 03:19:20;;;;;;;0.90;0.90;;;;;;;16.09;74.63;95928.31;4360998;32;26555;-61
2022/06/14 03:21:51;;;;;;;1.17;1.17;;;;;;;16.11;74.42;95926.13;4353988;32;20185;-60
2022/06/14 03:24:34;;;;;;;0.77;0.77;;;;;;;16.09;74.38;95925.66;4359037;32;20244;-60
2022/06/14 03:27:15;;;;;;;1.00;0.67;;;;;;;15.99;75.76;95934.00;4339329;32;20199;-60
2022/06/14 03:29:52;;;;;;;0.70;0.70;;;;;;;16.05;75.42;95932.72;4335435;32;20215;-60
2022/06/14 03:32:25;;;;;;;0.63;0.63;;;;;;;16.15;74.06;95932.44;4347877;32;20203;-61
2022/06/14 03:34:59;;;;;;;0.80;0.80;;;;;;;16.09;73.95;95933.69;4356596;32;20201;-60
2022/06/14 03:37:24;;;;;;;0.93;0.93;;;;;;;16.08;74.28;95926.75;4344369;32;20196;-61
2022/06/14 03:40:03;;;;;;;0.80;0.80;;;;;;;16.07;73.42;95928.63;4360545;32;20213;-60
2022/06/14 03:42:29;;;;;;;2.60;1.37;;;;;;;16.02;73.57;95933.34;4352677;32;20192;-60
2022/06/14 03:44:54;;;;;;;0.67;0.67;;;;;;;15.96;74.97;95930.03;4358674;32;20189;-60
2022/06/14 03:47:26;;;;;;;0.60;0.60;;;;;;;15.86;76.65;95927.66;4358717;32;20191;-60
2022/06/14 03:50:11;;;;;;;1.00;1.00;;;;;;;15.96;77.08;95930.03;4347861;32;20224;-61
2022/06/14 03:53:00;;;;;;;0.90;0.90;;;;;;;15.73;77.97;95918.66;4346280;32;20207;-60
2022/06/14 03:55:45;;;;;;;5.27;1.13;;;;;;;15.75;77.93;95939.75;4358337;32;20295;-60
2022/06/14 03:58:38;;;;;;;0.70;0.70;;;;;;;15.74;78.21;95938.16;4338803;32;20230;-60
2022/06/14 04:01:21;;;;;;;0.83;0.83;;;;;;;15.82;77.95;95924.81;4351766;32;20190;-60
2022/06/14 04:04:07;;;;;;;1.00;1.00;;;;;;;15.96;76.97;95929.25;4358776;32;20207;-60
2022/06/14 04:06:51;;;;;;;3.20;0.90;;;;;;;15.89;77.40;95929.72;4327305;32;20200;-60
2022/06/14 04:09:33;;;;;;;6.67;1.10;;;;;;;16.03;76.61;95927.69;4358462;32;20204;-60
2022/06/14 04:12:16;;;;;;;0.63;0.63;;;;;;;16.13;75.64;95934.62;4358705;32;20205;-60
2022/06/14 04:15:16;;;;;;;0.73;0.73;;;;;;;15.98;76.00;95937.75;4358992;32;20177;-60
2022/06/14 04:17:53;;;;;;;0.60;0.60;;;;;;;16.12;74.44;95938.41;4370470;32;20219;-60
2022/06/14 04:20:37;;;;;;;0.83;0.83;;;;;;;16.12;73.79;95939.19;4346640;32;20199;-62
2022/06/14 04:23:21;;;;;;;0.93;0.93;;;;;;;16.13;72.90;95937.31;4357189;32;20282;-60
2022/06/14 04:26:17;;;;;;;0.60;0.60;;;;;;;16.10;71.66;95930.69;4355820;32;20219;-60
2022/06/14 04:29:12;;;;;;;1.60;0.63;;;;;;;16.26;69.60;95928.34;4354881;32;20200;-61
2022/06/14 04:31:57;;;;;;;0.73;0.73;;;;;;;16.16;70.07;95934.00;4342642;32;20249;-61
2022/06/14 04:34:45;;;;;;;0.97;0.97;;;;;;;16.35;68.83;95931.03;4352536;32;20224;-61
2022/06/14 04:37:27;;;;;;;0.70;0.70;;;;;;;16.25;68.37;95926.75;4376332;32;20180;-61
2022/06/14 04:40:09;;;;;;;0.70;0.70;;;;;;;16.33;67.95;95928.66;4360130;32;20226;-61
2022/06/14 04:42:45;;;;;;;0.80;0.70;;;;;;;16.31;67.85;95925.50;4352073;32;20203;-61
2022/06/14 04:45:47;;;;;;;1.03;1.03;;;;;;;16.29;68.79;95927.72;4361021;32;20176;-61
2022/06/14 04:48:24;;;;;;;1.43;1.33;;;;;;;16.40;67.36;95929.00;4345634;32;20226;-60
2022/06/14 04:51:03;;;;;;;0.57;0.57;;;;;;;16.27;67.77;95924.56;4363355;32;20189;-60
2022/06/14 04:53:42;;;;;;;0.70;0.70;;;;;;;16.33;66.33;95927.88;4366286;32;20177;-60
2022/06/14 04:56:16;;;;;;;0.40;0.40;;;;;;;16.29;66.64;95938.41;4357105;32;20248;-60
2022/06/14 04:58:49;;;;;;;0.97;0.60;;;;;;;16.46;nan;95937.63;4363547;32;20283;-60
2022/06/14 05:01:24;;;;;;;0.70;0.70;;;;;;;16.44;65.41;95940.63;4360346;32;20219;-60
2022/06/14 05:03:58;;;;;;;1.80;1.07;;;;;;;16.42;65.80;95940.16;4352937;32;20219;-61
2022/06/14 05:06:46;;;;;;;1.23;1.23;;;;;;;16.46;65.46;95941.09;4353091;32;20192;-60
2022/06/14 05:09:19;;;;;;;0.57;0.57;;;;;;;16.40;66.46;95942.38;4354668;32;20185;-60
2022/06/14 05:12:09;;;;;;;1.40;1.30;;;;;;;16.50;65.13;95935.91;4376791;32;20180;-60
2022/06/14 05:14:47;;;;;;;0.73;0.73;;;;;;;16.53;64.71;95931.81;4342298;32;20177;-60
2022/06/14 05:17:30;;;;;;;0.80;0.80;;;;;;;16.49;63.14;95931.66;4369368;32;20181;-60
2022/06/14 05:19:59;;;;;;;0.63;0.63;;;;;;;16.57;62.88;95928.19;4364971;32;20259;-61
2022/06/14 05:22:45;;;;;;;0.83;0.83;;;;;;;16.68;63.74;95924.09;4349104;32;20249;-61
2022/06/14 05:25:13;;;;;;;1.10;1.10;;;;;;;16.78;64.16;95931.03;4355168;32;20223;-61
2022/06/14 05:27:44;;;;;;;1.23;1.13;;;;;;;16.76;64.69;95933.25;4361541;32;21757;-61
2022/06/14 05:30:31;;;;;;;0.53;0.53;;;;;;;16.87;64.47;95937.16;4351885;32;20203;-61
2022/06/14 05:33:09;;;;;;;2.23;1.53;;;;;;;16.88;64.29;95937.94;4371326;32;20185;-61
2022/06/14 05:36:04;;;;;;;0.50;0.50;;;;;;;16.89;63.92;95926.91;4358527;32;20192;-61
2022/06/14 05:38:58;;;;;;;0.40;0.40;;;;;;;16.90;63.99;95939.22;4340498;32;20207;-61
2022/06/14 05:41:40;;;;;;;8.00;1.23;;;;;;;16.95;63.57;95944.41;4344887;32;20181;-61
2022/06/14 05:44:31;;;;;;;0.40;0.40;;;;;;;16.97;60.36;95936.84;4351476;32;20181;-60
2022/06/14 05:47:03;;;;;;;0.87;0.77;;;;;;;17.04;59.78;95939.06;4345733;32;20181;-60
2022/06/14 05:49:34;;;;;;;0.53;0.53;;;;;;;17.14;59.18;95944.84;4360399;32;20189;-61
2022/06/14 05:52:14;;;;;;;0.57;0.57;;;;;;;17.23;58.45;95936.78;4363692;32;20189;-61
2022/06/14 05:54:45;;;;;;;0.40;0.40;;;;;;;17.17;58.55;95944.22;4346310;32;20185;-61
2022/06/14 05:57:23;;;;;;;1.10;1.00;;;;;;;17.21;58.42;95941.69;4364391;32;20189;-61
2022/06/14 05:59:58;;;;;;;0.60;0.60;;;;;;;17.26;57.92;95948.75;4352269;32;20288;-61
2022/06/14 06:02:33;;;;;;;0.50;0.50;;;;;;;17.37;56.87;95942.72;4345317;32;20220;-61
2022/06/14 06:05:07;;;;;;;0.97;0.87;;;;;;;17.50;57.04;95944.41;4364241;32;20251;-61
2022/06/14 06:07:39;;;;;;;1.07;0.97;;;;;;;17.47;57.60;95949.62;4355533;32;20220;-61
2022/06/14 06:10:18;;;;;;;1.00;1.00;;;;;;;17.58;56.77;95950.06;4343208;32;20182;-61
2022/06/14 06:12:51;;;;;;;0.60;0.60;;;;;;;17.67;55.36;95948.94;4343941;32;20181;-61
2022/06/14 06:15:32;;;;;;;1.40;1.00;;;;;;;17.69;55.67;95952.09;4360364;32;20193;-61
2022/06/14 06:18:09;;;;;;;2.00;0.90;;;;;;;17.90;53.69;95959.41;4360282;32;20180;-61
2022/06/14 06:21:06;;;;;;;0.40;0.40;;;;;;;17.96;54.02;95960.81;4356962;32;20203;-61
2022/06/14 06:23:41;;;;;;;1.20;1.10;;;;;;;18.15;52.47;95948.53;4352271;32;20255;-61
2022/06/14 06:26:11;;;;;;;0.30;0.30;;;;;;;18.13;54.70;95948.06;4350554;32;20189;-61
2022/06/14 06:28:55;;;;;;;1.23;1.23;;;;;;;18.28;53.68;95951.31;4364365;32;20194;-61
2022/06/14 06:31:27;;;;;;;1.13;1.13;;;;;;;18.40;54.74;95949.47;4355610;32;20189;-61
2022/06/14 06:33:55;;;;;;;1.23;1.23;;;;;;;18.36;53.13;95950.44;4343423;32;20247;-61
2022/06/14 06:36:48;;;;;;;0.80;0.80;;;;;;;18.40;53.29;95946.78;4346147;32;20204;-61
2022/06/14 06:39:31;;;;;;;0.53;0.53;;;;;;;18.66;48.07;95957.38;4356706;32;20181;-61
2022/06/14 06:42:04;;;;;;;0.80;0.60;;;;;;;18.57;49.14;95953.94;4359540;32;20181;-61
2022/06/14 06:44:50;;;;;;;0.67;0.67;;;;;;;18.80;49.46;95957.09;4357494;32;20222;-61
2022/06/14 06:47:29;;;;;;;0.60;0.60;;;;;;;18.90;48.98;95961.28;4342256;32;20191;-61
2022/06/14 06:50:09;;;;;;;1.43;1.33;;;;;;;18.92;49.51;95949.06;4361789;32;20197;-61
2022/06/14 06:53:16;;;;;;;0.60;0.60;;;;;;;19.04;50.82;95941.06;4348042;32;20177;-61
2022/06/14 06:55:49;;;;;;;1.27;1.17;;;;;;;19.19;50.81;95953.06;4349051;32;20226;-61
2022/06/14 06:58:53;;;;;;;1.33;1.27;;;;;;;19.27;50.35;95948.72;4340136;32;20193;-61
2022/06/14 07:01:31;;;;;;;0.40;0.40;;;;;;;19.28;51.26;95945.72;4328635;32;20192;-62
2022/06/14 07:04:12;;;;;;;1.50;1.40;;;;;;;19.50;49.76;95947.25;4360471;32;20246;-61
2022/06/14 07:06:39;;;;;;;0.90;0.90;;;;;;;19.72;48.44;95949.50;4374664;32;20199;-61
2022/06/14 07:09:09;;;;;;;2.13;1.97;;;;;;;19.90;48.18;95950.84;4351976;32;20193;-61
2022/06/14 07:11:51;;;;;;;2.10;2.00;;;;;;;19.93;45.73;95952.09;4355916;32;20196;-61
2022/06/14 07:14:40;;;;;;;1.73;1.73;;;;;;;19.97;46.74;95954.88;4346508;32;20181;-61
2022/06/14 07:17:18;;;;;;;3.77;3.47;;;;;;;20.13;47.50;95939.63;4360599;32;20189;-61
2022/06/14 07:19:59;;;;;;;2.30;2.20;;;;;;;20.41;47.87;95942.38;4366682;32;20181;-61
2022/06/14 07:22:46;;;;;;;10.23;9.30;;;;;;;20.43;46.54;95946.31;4342480;32;20205;-62
2022/06/14 07:25:22;;;;;;;8.90;3.83;;;;;;;20.42;44.76;95950.12;4340154;32;20188;-61
2022/06/14 07:27:53;;;;;;;1.80;1.70;;;;;;;20.27;46.31;95948.13;4342505;32;20185;-61
2022/06/14 07:30:31;;;;;;;2.37;0.83;;;;;;;20.30;47.66;95960.91;4349932;32;20193;-62
2022/06/14 07:33:00;;;;;;;0.57;0.57;;;;;;;20.10;49.46;95951.06;4360484;32;20208;-62
2022/06/14 07:35:42;;;;;;;0.67;0.67;;;;;;;20.14;48.74;95954.66;4359256;32;20180;-61
2022/06/14 07:38:31;;;;;;;0.60;0.60;;;;;;;20.17;46.78;95953.97;4367375;32;20263;-61
2022/06/14 07:41:36;;;;;;;0.80;0.80;;;;;;;20.19;46.80;95949.81;4354297;32;20181;-61
2022/06/14 07:44:20;;;;;;;0.50;0.50;;;;;;;20.07;48.45;95951.72;4355900;32;20411;-61
2022/06/14 07:46:55;;;;;;;0.53;0.53;;;;;;;20.02;48.44;95941.97;4337000;32;20219;-61
2022/06/14 07:49:49;;;;;;;0.40;0.40;;;;;;;19.97;49.24;95944.09;4330351;32;20195;-62
2022/06/14 07:52:26;;;;;;;0.20;0.20;;;;;;;20.05;49.98;95941.28;4352849;32;20197;-61
2022/06/14 07:55:01;;;;;;;1.47;1.37;;;;;;;20.07;48.85;95932.88;4342797;32;20219;-62
2022/06/14 07:57:36;;;;;;;1.00;1.00;;;;;;;20.12;51.26;95938.03;4346843;32;20188;-61
2022/06/14 08:03:16;;;;;;;1.17;1.10;;;;;;;20.13;49.59;95929.63;4345102;32;20200;-61
2022/06/14 08:05:47;;;;;;;0.70;0.70;;;;;;;20.05;48.60;95935.12;4350099;32;20185;-61
2022/06/14 08:08:21;;;;;;;1.07;0.90;;;;;;;19.99;49.48;95931.06;4349598;32;20257;-61
2022/06/14 08:10:54;;;;;;;0.50;0.50;;;;;;;20.03;51.32;95935.47;4358632;32;20207;-61
2022/06/14 08:13:26;;;;;;;1.10;0.60;;;;;;;20.03;48.48;95926.59;4367994;32;20231;-62
2022/06/14 08:15:55;;;;;;;0.47;0.47;;;;;;;20.10;49.32;95932.22;4343669;32;20227;-61
2022/06/14 08:18:57;;;;;;;0.93;0.73;;;;;;;20.14;50.44;95941.97;4358204;32;20173;-61
2022/06/14 08:21:51;;;;;;;0.60;0.60;;;;;;;20.15;46.70;95940.06;4347075;32;20227;-62
2022/06/14 08:24:22;;;;;;;1.07;0.80;;;;;;;20.11;48.87;95936.47;4328364;32;20196;-61
2022/06/14 08:27:15;;;;;;;0.40;0.40;;;;;;;20.21;46.24;95944.06;4355641;32;20310;-62
2022/06/14 08:30:04;;;;;;;0.70;0.70;;;;;;;20.23;45.75;95933.75;4344830;32;20199;-61
2022/06/14 08:32:37;;;;;;;0.90;0.90;;;;;;;20.20;46.55;95940.59;4329427;32;20193;-61
2022/06/14 08:35:09;;;;;;;0.63;0.63;;;;;;;20.27;49.02;95931.94;4344482;32;20233;-61
2022/06/14 08:37:57;;;;;;;0.90;0.90;;;;;;;20.15;44.17;95940.06;4370954;32;20188;-61
2022/06/14 08:40:53;;;;;;;0.40;0.40;;;;;;;20.07;43.61;95943.66;4339344;32;20208;-61
2022/06/14 08:43:29;;;;;;;0.83;0.80;;;;;;;20.00;44.57;95932.66;4344704;32;20188;-62
2022/06/14 08:46:24;;;;;;;1.50;1.30;;;;;;;20.19;44.98;95938.25;4340206;32;20189;-62
2022/06/14 08:49:08;;;;;;;0.50;0.50;;;;;;;20.13;45.51;95929.63;4335107;32;20185;-62
2022/06/14 08:52:39;;;;;;;0.43;0.43;;;;;;;20.14;46.61;95933.09;4347592;32;20181;-61
2022/06/14 08:55:19;;;;;;;0.70;0.70;;;;;;;20.22;45.72;95941.03;4284026;33;20204;-61
2022/06/14 08:58:04;;;;;;;2.27;1.73;;;;;;;20.17;46.53;95933.19;4350576;32;20238;-61
2022/06/14 09:00:49;;;;;;;0.93;0.93;;;;;;;20.31;44.90;95926.66;4361850;32;20177;-61
2022/06/14 09:03:35;;;;;;;0.90;0.90;;;;;;;20.43;44.86;95934.75;4355666;32;20193;-61
2022/06/14 09:06:26;;;;;;;0.50;0.50;;;;;;;20.39;45.24;95931.94;4342253;32;20185;-61
2022/06/14 09:09:14;;;;;;;0.83;0.83;;;;;;;20.38;46.37;95927.66;4364879;32;20219;-62
2022/06/14 09:11:48;;;;;;;0.60;0.60;;;;;;;20.41;45.07;95916.22;4368704;32;20286;-61
2022/06/14 09:14:32;;;;;;;0.63;0.63;;;;;;;20.37;46.04;95919.94;4357894;32;20203;-61
2022/06/14 09:17:36;;;;;;;2.20;1.10;;;;;;;20.36;45.53;95921.84;4333951;32;20192;-61
2022/06/14 09:20:09;;;;;;;0.80;0.80;;;;;;;20.46;45.11;95923.28;4358203;32;20176;-62
2022/06/14 09:22:49;;;;;;;3.93;0.93;;;;;;;20.62;44.82;95920.66;4375782;32;20227;-61
2022/06/14 09:25:58;;;;;;;1.50;1.40;;;;;;;20.67;44.55;95918.50;4369414;32;20173;-61
2022/06/14 09:28:58;;;;;;;0.67;0.63;;;;;;;20.75;44.80;95914.09;4330124;32;20218;-62
2022/06/14 09:31:48;;;;;;;0.83;0.83;;;;;;;20.62;45.88;95917.94;4359862;32;20181;-62
2022/06/14 09:34:35;;;;;;;0.60;0.60;;;;;;;20.69;45.69;95915.47;4360988;32;20207;-61
2022/06/14 09:37:17;;;;;;;0.57;0.57;;;;;;;20.75;45.56;95914.09;4360001;32;20185;-61
2022/06/14 09:40:11;;;;;;;2.77;2.50;;;;;;;20.71;45.31;95916.69;4365244;32;20195;-61
2022/06/14 09:43:09;;;;;;;4.80;1.73;;;;;;;20.74;46.48;95912.53;4346274;32;20264;-61
2022/06/14 09:46:06;;;;;;;1.13;1.00;;;;;;;20.81;46.74;95915.41;4332043;32;20181;-61
2022/06/14 09:49:00;;;;;;;0.93;0.93;;;;;;;20.82;46.79;95908.87;4339279;32;20185;-61
2022/06/14 09:51:59;;;;;;;0.90;0.90;;;;;;;20.91;46.40;95915.69;4346119;32;20219;-61
2022/06/14 09:55:00;;;;;;;0.40;0.40;;;;;;;20.85;46.34;95914.38;4333440;32;20192;-62
2022/06/14 09:57:53;;;;;;;0.57;0.57;;;;;;;20.96;45.60;95914.69;4356416;32;20215;-62
2022/06/14 10:00:32;;;;;;;1.13;0.97;;;;;;;21.02;45.62;95907.09;4349517;32;20177;-62
2022/06/14 10:03:23;;;;;;;1.97;0.60;;;;;;;21.17;46.01;95914.44;4346866;32;20207;-62
2022/06/14 10:06:07;;;;;;;0.63;0.50;;;;;;;21.27;44.37;95906.66;4362568;32;20197;-63
2022/06/14 10:09:10;;;;;;;0.40;0.40;;;;;;;21.27;45.46;95908.56;4349587;32;20235;-62
2022/06/14 10:11:54;;;;;;;1.23;0.90;;;;;;;21.39;46.32;95907.72;4356781;32;20208;-62
2022/06/14 10:14:45;;;;;;;0.80;0.80;;;;;;;21.30;46.61;95901.69;4358084;32;20195;-62
2022/06/14 10:17:41;;;;;;;0.70;0.70;;;;;;;21.19;46.79;95902.19;4343657;32;20199;-62
2022/06/14 10:20:35;;;;;;;0.60;0.60;;;;;;;21.26;46.02;95902.38;4359853;32;20193;-62
2022/06/14 10:23:19;;;;;;;0.97;0.97;;;;;;;21.26;45.74;95896.97;4360273;32;20185;-62
2022/06/14 10:28:52;;;;;;;1.17;1.10;;;;;;;21.27;46.44;95898.53;4362317;32;20203;-63
2022/06/14 10:31:57;;;;;;;1.53;1.27;;;;;;;21.48;45.61;95886.72;4350803;32;20264;-61
2022/06/14 10:34:43;;;;;;;1.90;0.83;;;;;;;21.54;44.66;95888.81;4308148;33;20204;-61
2022/06/14 10:37:39;;;;;;;1.07;0.90;;;;;;;21.48;44.64;95892.09;4339323;32;20297;-61
2022/06/14 10:40:35;;;;;;;0.50;0.50;;;;;;;21.53;44.03;95891.84;4339091;32;20185;-61
2022/06/14 10:43:23;;;;;;;1.13;1.13;;;;;;;21.61;44.27;95890.91;4332563;32;20180;-62
2022/06/14 10:46:05;;;;;;;0.73;0.73;;;;;;;21.53;44.44;95889.94;4347281;32;20193;-62
2022/06/14 10:49:30;;;;;;;0.60;0.60;;;;;;;21.57;45.39;95885.41;4361206;32;20294;-61
2022/06/14 10:52:23;;;;;;;0.77;0.77;;;;;;;21.72;44.59;95897.31;4334996;32;20367;-61
2022/06/14 10:55:07;;;;;;;0.40;0.40;;;;;;;21.59;44.81;95882.38;4367239;32;20233;-63
2022/06/14 10:57:51;;;;;;;2.33;0.97;;;;;;;21.61;44.44;95880.84;4335032;32;20185;-62
2022/06/14 11:00:35;;;;;;;0.97;0.97;;;;;;;21.61;45.56;95874.69;4358616;32;20181;-62
2022/06/14 11:03:18;;;;;;;1.17;1.17;;;;;;;21.65;44.50;95878.25;4359630;32;20185;-61
2022/06/14 11:06:01;;;;;;;0.73;0.73;;;;;;;21.57;44.31;95888.09;4347161;32;20247;-61
2022/06/14 11:08:51;;;;;;;0.53;0.53;;;;;;;21.54;44.17;95882.63;4369059;32;20264;-61
2022/06/14 11:11:23;;;;;;;0.80;0.80;;;;;;;21.56;45.70;95883.06;4359372;32;20199;-61
2022/06/14 11:13:54;;;;;;;0.70;0.70;;;;;;;21.62;45.04;95879.72;4357759;32;20219;-63
2022/06/14 11:16:57;;;;;;;0.50;0.40;;;;;;;21.58;43.75;95886.97;4358315;32;20185;-61
2022/06/14 11:19:41;;;;;;;0.40;0.40;;;;;;;21.49;43.95;95877.47;4338337;32;20189;-61
2022/06/14 11:22:39;;;;;;;0.70;0.70;;;;;;;21.46;44.06;95872.75;4344654;32;20188;-61
2022/06/14 11:25:23;;;;;;;0.90;0.90;;;;;;;21.51;43.32;95877.91;4344542;32;20185;-61
2022/06/14 11:28:10;;;;;;;0.70;0.70;;;;;;;21.47;43.26;95874.34;4357878;32;20185;-62
2022/06/14 11:30:43;;;;;;;0.97;0.87;;;;;;;21.47;45.05;95863.53;4358476;32;20227;-61
2022/06/14 11:33:47;;;;;;;0.83;0.83;;;;;;;21.63;43.56;95867.00;4358134;32;20276;-61
2022/06/14 11:36:21;;;;;;;0.57;0.57;;;;;;;21.65;45.01;95864.72;4348833;32;20338;-61
2022/06/14 11:39:06;;;;;;;0.93;0.93;;;;;;;21.69;43.69;95868.31;4345655;32;20176;-61
2022/06/14 11:41:40;;;;;;;0.50;0.50;;;;;;;21.65;44.82;95859.34;4346284;32;20255;-61
2022/06/14 11:44:24;;;;;;;0.40;0.40;;;;;;;21.70;43.63;95855.59;4338037;32;20194;-61
2022/06/14 11:46:52;;;;;;;4.90;1.27;;;;;;;21.76;43.56;95852.28;4352811;32;20219;-62
2022/06/14 11:49:48;;;;;;;1.53;1.50;;;;;;;21.77;43.89;95845.75;4366740;32;20177;-61
2022/06/14 11:52:51;;;;;;;1.00;1.00;;;;;;;21.79;44.50;95848.88;4336622;32;20178;-62
2022/06/14 11:55:34;;;;;;;1.47;1.37;;;;;;;21.86;43.57;95849.00;4339925;32;20181;-62
2022/06/14 11:58:15;;;;;;;0.63;0.63;;;;;;;21.82;43.12;95845.44;4340668;32;20189;-62
2022/06/14 12:00:49;;;;;;;2.63;0.67;;;;;;;21.85;43.68;95847.44;4347448;32;20199;-62
2022/06/14 12:03:24;;;;;;;0.87;0.87;;;;;;;21.89;42.16;95839.41;4344140;32;20201;-62
2022/06/14 12:05:58;;;;;;;17.70;1.97;;;;;;;21.95;42.38;95840.72;4327119;32;20184;-64
2022/06/14 12:09:01;;;;;;;1.20;1.10;;;;;;;21.93;42.66;95837.59;4342709;32;20232;-62
2022/06/14 12:11:37;;;;;;;0.20;0.20;;;;;;;21.81;42.50;95841.19;4336950;32;20223;-62
2022/06/14 12:14:44;;;;;;;1.17;1.17;;;;;;;21.81;43.47;95840.41;4340514;32;20180;-61
2022/06/14 12:17:37;;;;;;;0.40;0.40;;;;;;;21.83;42.54;95830.00;4345783;32;20283;-62
2022/06/14 12:20:17;;;;;;;0.63;0.63;;;;;;;21.99;42.84;95819.97;4363521;32;20172;-62
2022/06/14 12:23:19;;;;;;;0.97;0.97;;;;;;;22.05;42.25;95828.59;4363290;32;20200;-62
2022/06/14 12:28:57;;;;;;;5.20;1.47;;;;;;;21.95;43.32;95828.00;4366724;32;20225;-62
2022/06/14 12:31:33;;;;;;;0.30;0.30;;;;;;;21.89;43.66;95821.28;4355262;32;20192;-63
2022/06/14 12:34:08;;;;;;;0.60;0.60;;;;;;;21.99;42.61;95835.41;4361809;32;20203;-62
2022/06/14 12:36:57;;;;;;;0.70;0.70;;;;;;;21.79;43.03;95821.84;4345162;32;20246;-62
2022/06/14 12:39:34;;;;;;;1.40;0.53;;;;;;;21.88;43.07;95824.34;4356267;32;20191;-62
2022/06/14 12:42:24;;;;;;;0.70;0.70;;;;;;;21.92;42.55;95820.59;4355147;32;20196;-62
2022/06/14 12:45:28;;;;;;;0.40;0.40;;;;;;;22.02;42.27;95826.63;4357042;32;20247;-63
2022/06/14 12:48:11;;;;;;;0.57;0.57;;;;;;;21.84;42.60;95823.47;4350015;32;20236;-62
2022/06/14 12:50:43;;;;;;;2.53;1.23;;;;;;;21.78;43.02;95816.81;4363985;32;20176;-62
2022/06/14 12:53:31;;;;;;;0.70;0.70;;;;;;;21.81;42.77;95810.69;4353340;32;20292;-62
2022/06/14 12:56:01;;;;;;;0.30;0.30;;;;;;;22.00;43.47;95809.94;4357574;32;20575;-62
2022/06/14 12:58:39;;;;;;;0.53;0.53;;;;;;;22.12;43.14;95813.31;4355391;32;20197;-62